createdAt,value
2022-08-23T00:01:34.208Z,26.04
2022-08-23T00:04:03.638Z,26.03
2022-08-23T00:06:31.073Z,26.02
2022-08-23T00:08:58.916Z,26.02
2022-08-23T00:11:32.057Z,26.03
2022-08-23T00:14:00.485Z,26.04
2022-08-23T00:16:27.950Z,26.07
2022-08-23T00:18:55.400Z,26.05
2022-08-23T00:21:23.217Z,26.05
2022-08-23T00:23:50.911Z,26.05
2022-08-23T00:26:20.524Z,26.03
2022-08-23T00:28:49.242Z,26.02
2022-08-23T00:31:16.840Z,26.01
2022-08-23T00:33:44.273Z,26.00
2022-08-23T00:36:11.720Z,25.99
2022-08-23T00:38:39.418Z,25.99
2022-08-23T00:41:07.513Z,25.99
2022-08-23T00:43:55.172Z,25.98
2022-08-23T00:46:49.651Z,25.96
2022-08-23T00:49:17.081Z,25.98
2022-08-23T00:51:52.809Z,26.00
2022-08-23T00:54:21.418Z,25.99
2022-08-23T00:56:48.848Z,25.98
2022-08-23T00:59:16.315Z,25.99
2022-08-23T01:01:45.126Z,25.98
2022-08-23T01:04:12.617Z,25.97
2022-08-23T01:06:44.005Z,25.99
2022-08-23T01:09:13.566Z,25.98
2022-08-23T01:11:42.532Z,25.97
2022-08-23T01:14:13.148Z,25.98
2022-08-23T01:16:45.554Z,25.98
2022-08-23T01:19:17.790Z,26.00
2022-08-23T01:21:47.784Z,26.00
2022-08-23T01:24:19.292Z,25.98
2022-08-23T01:27:05.322Z,25.98
2022-08-23T01:29:33.222Z,25.96
2022-08-23T01:32:00.832Z,25.96
2022-08-23T01:34:30.348Z,25.95
2022-08-23T01:37:05.286Z,25.97
2022-08-23T01:39:34.388Z,25.97
2022-08-23T01:42:07.741Z,25.98
2022-08-23T01:44:35.614Z,25.98
2022-08-23T01:47:03.403Z,25.99
2022-08-23T01:49:30.985Z,25.97
2022-08-23T01:51:58.413Z,25.97
2022-08-23T01:54:25.848Z,25.96
2022-08-23T01:56:54.586Z,25.96
2022-08-23T01:59:22.616Z,25.94
2022-08-23T02:01:53.876Z,25.93
2022-08-23T02:04:22.736Z,25.92
2022-08-23T02:06:50.227Z,25.92
2022-08-23T02:09:22.028Z,25.92
2022-08-23T02:11:56.387Z,25.92
2022-08-23T02:14:24.486Z,25.93
2022-08-23T02:17:04.586Z,25.93
2022-08-23T02:19:35.804Z,25.92
2022-08-23T02:22:04.008Z,25.92
2022-08-23T02:24:31.942Z,25.90
2022-08-23T02:27:03.242Z,25.92
2022-08-23T02:29:33.125Z,25.92
2022-08-23T02:32:04.268Z,25.93
2022-08-23T02:37:16.648Z,25.91
2022-08-23T02:39:44.341Z,25.91
2022-08-23T02:42:14.339Z,25.91
2022-08-23T02:44:44.167Z,25.92
2022-08-23T02:47:12.390Z,25.90
2022-08-23T02:49:43.467Z,25.93
2022-08-23T02:52:11.060Z,25.92
2022-08-23T02:54:38.729Z,25.91
2022-08-23T02:57:06.594Z,25.89
2022-08-23T02:59:35.370Z,25.91
2022-08-23T03:02:02.961Z,25.88
2022-08-23T03:04:36.340Z,25.89
2022-08-23T03:07:04.260Z,25.88
2022-08-23T03:09:32.376Z,25.86
2022-08-23T03:11:59.860Z,25.85
2022-08-23T03:14:28.097Z,25.85
2022-08-23T03:16:58.268Z,25.84
2022-08-23T03:19:25.974Z,25.82
2022-08-23T03:21:53.461Z,25.82
2022-08-23T03:24:22.200Z,25.81
2022-08-23T03:26:49.824Z,25.82
2022-08-23T03:29:17.849Z,25.83
2022-08-23T03:31:59.602Z,25.85
2022-08-23T03:34:27.940Z,25.82
2022-08-23T03:36:56.194Z,25.82
2022-08-23T03:39:23.815Z,25.85
2022-08-23T03:41:51.331Z,25.82
2022-08-23T03:44:19.312Z,25.81
2022-08-23T03:46:46.878Z,25.81
2022-08-23T03:49:15.673Z,25.82
2022-08-23T03:51:53.551Z,25.81
2022-08-23T03:54:22.790Z,25.80
2022-08-23T03:56:53.102Z,25.80
2022-08-23T03:59:20.658Z,25.80
2022-08-23T04:01:48.463Z,25.80
2022-08-23T04:04:17.646Z,25.79
2022-08-23T04:07:05.072Z,25.78
2022-08-23T04:09:32.495Z,25.78
2022-08-23T04:11:59.969Z,25.78
2022-08-23T04:14:28.204Z,25.79
2022-08-23T04:16:56.025Z,25.78
2022-08-23T04:19:25.622Z,25.78
2022-08-23T04:22:01.088Z,25.79
2022-08-23T04:24:35.418Z,25.79
2022-08-23T04:27:02.868Z,25.78
2022-08-23T04:29:34.376Z,25.77
2022-08-23T04:32:02.988Z,25.77
2022-08-23T04:34:34.670Z,25.76
2022-08-23T04:37:02.295Z,25.76
2022-08-23T04:39:29.782Z,25.76
2022-08-23T04:42:15.785Z,25.77
2022-08-23T04:44:43.646Z,25.77
2022-08-23T04:47:12.623Z,25.77
2022-08-23T04:49:41.453Z,25.76
2022-08-23T04:52:09.197Z,25.76
2022-08-23T04:54:36.922Z,25.76
2022-08-23T04:57:27.504Z,25.74
2022-08-23T04:59:55.073Z,25.74
2022-08-23T05:02:23.057Z,25.76
2022-08-23T05:04:52.756Z,25.76
2022-08-23T05:07:21.618Z,25.77
2022-08-23T05:10:10.257Z,25.77
2022-08-23T05:12:37.865Z,25.76
2022-08-23T05:15:05.589Z,25.74
2022-08-23T05:17:33.342Z,25.75
2022-08-23T05:20:02.328Z,25.75
2022-08-23T05:22:33.556Z,25.75
2022-08-23T05:25:19.089Z,25.75
2022-08-23T05:27:46.870Z,25.73
2022-08-23T05:30:15.412Z,25.73
2022-08-23T05:32:43.485Z,25.74
2022-08-23T05:35:13.176Z,25.72
2022-08-23T05:37:43.983Z,25.72
2022-08-23T05:40:11.860Z,25.73
2022-08-23T05:42:48.475Z,25.68
2022-08-23T05:45:20.722Z,25.68
2022-08-23T05:47:49.802Z,25.64
2022-08-23T05:50:38.223Z,25.63
2022-08-23T05:53:05.743Z,25.66
2022-08-23T05:55:35.103Z,25.67
2022-08-23T05:58:16.936Z,25.69
2022-08-23T06:00:45.168Z,25.71
2022-08-23T06:03:13.112Z,25.72
2022-08-23T06:05:42.558Z,25.73
2022-08-23T06:08:11.631Z,25.75
2022-08-23T06:10:42.222Z,25.77
2022-08-23T06:13:40.635Z,25.78
2022-08-23T06:16:14.299Z,25.79
2022-08-23T06:18:42.622Z,25.79
2022-08-23T06:21:27.829Z,25.80
2022-08-23T06:23:56.381Z,25.80
2022-08-23T06:26:25.192Z,25.82
2022-08-23T06:28:56.975Z,25.81
2022-08-23T06:31:39.045Z,25.81
2022-08-23T06:34:10.325Z,25.80
2022-08-23T06:36:57.522Z,25.82
2022-08-23T06:39:58.250Z,25.81
2022-08-23T06:42:48.311Z,25.84
2022-08-23T06:45:20.678Z,25.85
2022-08-23T06:48:01.518Z,25.85
2022-08-23T06:50:31.960Z,25.87
2022-08-23T06:53:20.121Z,25.86
2022-08-23T06:56:15.283Z,25.86
2022-08-23T06:58:53.100Z,25.87
2022-08-23T07:01:45.493Z,25.89
2022-08-23T07:04:21.622Z,25.90
2022-08-23T07:07:11.570Z,25.89
2022-08-23T07:09:41.101Z,25.89
2022-08-23T07:12:09.130Z,25.90
2022-08-23T07:14:39.391Z,25.91
2022-08-23T07:17:08.208Z,25.90
2022-08-23T07:19:35.649Z,25.90
2022-08-23T07:22:04.067Z,25.91
2022-08-23T07:24:33.627Z,25.92
2022-08-23T07:27:06.733Z,25.92
2022-08-23T07:29:36.081Z,25.91
2022-08-23T07:32:04.850Z,25.92
2022-08-23T07:34:33.045Z,25.93
2022-08-23T07:37:01.553Z,25.93
2022-08-23T07:39:31.643Z,25.94
2022-08-23T07:42:00.746Z,25.96
2022-08-23T07:44:30.023Z,25.95
2022-08-23T07:46:58.748Z,25.96
2022-08-23T07:49:29.334Z,25.94
2022-08-23T07:51:59.810Z,25.96
2022-08-23T07:54:28.372Z,25.94
2022-08-23T07:57:19.917Z,25.95
2022-08-23T07:59:54.712Z,25.95
2022-08-23T08:02:40.017Z,25.95
2022-08-23T08:05:17.324Z,25.97
2022-08-23T08:07:48.855Z,25.96
2022-08-23T08:10:16.372Z,25.95
2022-08-23T08:12:43.893Z,25.96
2022-08-23T08:15:18.427Z,25.98
2022-08-23T08:17:50.962Z,25.98
2022-08-23T08:20:18.444Z,25.99
2022-08-23T08:23:04.799Z,25.97
2022-08-23T08:26:01.110Z,25.96
2022-08-23T08:28:28.656Z,25.98
2022-08-23T08:30:58.936Z,26.00
2022-08-23T08:33:30.721Z,26.01
2022-08-23T08:36:01.177Z,25.99
2022-08-23T08:38:32.479Z,26.01
2022-08-23T08:41:09.151Z,26.03
2022-08-23T08:43:48.567Z,26.04
2022-08-23T08:46:22.117Z,26.03
2022-08-23T08:48:51.303Z,26.05
2022-08-23T08:51:38.224Z,26.01
2022-08-23T08:54:08.259Z,26.03
2022-08-23T08:56:40.260Z,26.01
2022-08-23T08:59:21.779Z,26.05
2022-08-23T09:01:50.772Z,26.03
2022-08-23T09:04:25.528Z,26.04
2022-08-23T09:06:55.571Z,26.04
2022-08-23T09:09:35.144Z,26.02
2022-08-23T09:12:06.451Z,26.04
2022-08-23T09:14:39.639Z,26.05
2022-08-23T09:17:16.087Z,26.07
2022-08-23T09:19:44.672Z,26.07
2022-08-23T09:22:13.456Z,26.03
2022-08-23T09:24:41.088Z,26.01
2022-08-23T09:27:15.411Z,25.99
2022-08-23T09:29:57.201Z,26.00
2022-08-23T09:32:32.879Z,26.04
2022-08-23T09:35:11.231Z,26.02
2022-08-23T09:37:57.009Z,26.00
2022-08-23T09:40:34.131Z,26.01
2022-08-23T09:43:13.874Z,26.01
2022-08-23T09:45:43.601Z,25.99
2022-08-23T09:48:15.253Z,25.99
2022-08-23T09:50:54.385Z,25.97
2022-08-23T09:53:25.198Z,25.98
2022-08-23T09:55:53.400Z,25.98
2022-08-23T09:58:23.595Z,26.01
2022-08-23T10:01:06.692Z,26.01
2022-08-23T10:03:36.181Z,26.05
2022-08-23T10:06:15.975Z,26.05
2022-08-23T10:08:52.981Z,26.04
2022-08-23T10:11:22.696Z,25.98
2022-08-23T10:13:50.655Z,25.98
2022-08-23T10:16:22.736Z,26.00
2022-08-23T10:19:03.288Z,25.99
2022-08-23T10:21:37.415Z,25.98
2022-08-23T10:24:18.760Z,25.98
2022-08-23T10:26:52.284Z,25.95
2022-08-23T10:29:39.142Z,25.92
2022-08-23T10:32:13.441Z,25.83
2022-08-23T10:34:56.525Z,25.78
2022-08-23T10:37:41.730Z,25.76
2022-08-23T10:40:13.369Z,25.76
2022-08-23T10:42:43.536Z,25.75
2022-08-23T10:45:16.859Z,25.73
2022-08-23T10:47:53.117Z,25.72
2022-08-23T10:50:22.170Z,25.73
2022-08-23T10:52:55.616Z,25.66
2022-08-23T10:55:35.671Z,25.69
2022-08-23T10:58:05.495Z,25.74
2022-08-23T11:00:33.189Z,25.78
2022-08-23T11:03:15.728Z,25.81
2022-08-23T11:05:44.511Z,25.88
2022-08-23T11:08:31.813Z,25.91
2022-08-23T11:11:00.777Z,25.96
2022-08-23T11:13:34.965Z,25.96
2022-08-23T11:16:06.768Z,25.99
2022-08-23T11:18:40.259Z,26.01
2022-08-23T11:21:11.716Z,26.01
2022-08-23T11:23:54.160Z,26.02
2022-08-23T11:27:05.961Z,26.02
2022-08-23T11:29:38.168Z,26.03
2022-08-23T11:32:47.370Z,26.04
2022-08-23T11:35:35.343Z,26.05
2022-08-23T11:38:05.359Z,26.04
2022-08-23T11:40:59.108Z,26.04
2022-08-23T11:43:34.679Z,26.04
2022-08-23T11:46:31.059Z,26.06
2022-08-23T11:49:31.991Z,26.07
2022-08-23T11:52:04.118Z,26.10
2022-08-23T11:54:44.745Z,26.11
2022-08-23T11:57:20.081Z,26.08
2022-08-23T12:00:14.740Z,26.09
2022-08-23T12:02:51.687Z,26.11
2022-08-23T12:05:41.552Z,26.09
2022-08-23T12:08:46.228Z,26.11
2022-08-23T12:11:15.358Z,26.12
2022-08-23T12:13:51.443Z,26.12
2022-08-23T12:16:38.479Z,26.12
2022-08-23T12:19:13.556Z,26.10
2022-08-23T12:21:43.659Z,26.11
2022-08-23T12:24:17.364Z,26.13
2022-08-23T12:26:50.403Z,26.14
2022-08-23T12:29:23.166Z,26.18
2022-08-23T12:31:53.670Z,26.10
2022-08-23T12:34:23.371Z,26.12
2022-08-23T12:36:58.720Z,26.12
2022-08-23T12:39:34.419Z,26.12
2022-08-23T12:42:07.158Z,26.10
2022-08-23T12:44:34.731Z,26.12
2022-08-23T12:47:11.368Z,26.05
2022-08-23T12:49:38.903Z,26.02
2022-08-23T12:52:09.599Z,26.00
2022-08-23T12:54:39.267Z,25.96
2022-08-23T12:57:11.810Z,25.98
2022-08-23T12:59:43.361Z,25.96
2022-08-23T13:02:12.219Z,26.02
2022-08-23T13:04:40.269Z,26.02
2022-08-23T13:07:08.791Z,26.04
2022-08-23T13:09:37.758Z,26.06
2022-08-23T13:12:06.284Z,26.10
2022-08-23T13:14:37.700Z,26.18
2022-08-23T13:17:23.263Z,26.23
2022-08-23T13:19:51.676Z,26.26
2022-08-23T13:22:24.802Z,26.27
2022-08-23T13:25:26.684Z,26.29
2022-08-23T13:27:51.784Z,26.28
2022-08-23T13:30:22.596Z,26.26
2022-08-23T13:32:50.503Z,26.28
2022-08-23T13:35:24.587Z,26.28
2022-08-23T13:37:52.863Z,26.28
2022-08-23T13:40:22.527Z,26.27
2022-08-23T13:42:53.083Z,26.25
2022-08-23T13:45:24.630Z,26.29
2022-08-23T13:47:55.460Z,26.33
2022-08-23T13:50:24.868Z,26.34
2022-08-23T13:53:13.560Z,26.37
2022-08-23T13:55:41.638Z,26.39
2022-08-23T13:58:10.381Z,26.42
2022-08-23T14:00:39.140Z,26.44
2022-08-23T14:03:13.355Z,26.46
2022-08-23T14:05:40.793Z,26.48
2022-08-23T14:08:09.716Z,26.52
2022-08-23T14:10:37.146Z,26.49
2022-08-23T14:13:04.621Z,26.52
2022-08-23T14:18:20.994Z,26.59
2022-08-23T14:20:51.258Z,26.56
2022-08-23T14:23:19.017Z,26.56
2022-08-23T14:25:47.243Z,26.58
2022-08-23T14:28:14.791Z,26.57
2022-08-23T14:30:42.272Z,26.58
2022-08-23T14:33:09.732Z,26.62
2022-08-23T14:35:38.506Z,26.63
2022-08-23T14:38:05.932Z,26.64
2022-08-23T14:40:33.415Z,26.58
2022-08-23T14:43:00.964Z,26.57
2022-08-23T14:45:28.542Z,26.60
2022-08-23T14:47:56.046Z,26.61
2022-08-23T14:50:23.605Z,26.57
2022-08-23T14:52:52.361Z,26.52
2022-08-23T14:55:24.382Z,26.50
2022-08-23T14:57:52.554Z,26.45
2022-08-23T15:00:20.153Z,26.45
2022-08-23T15:02:48.701Z,26.42
2022-08-23T15:05:16.266Z,26.48
2022-08-23T15:07:43.740Z,26.52
2022-08-23T15:10:49.936Z,26.60
2022-08-23T15:13:15.602Z,26.62
2022-08-23T15:15:49.194Z,26.66
2022-08-23T15:18:16.740Z,26.68
2022-08-23T15:20:45.323Z,26.70
2022-08-23T15:23:12.824Z,26.68
2022-08-23T15:25:42.625Z,26.67
2022-08-23T15:28:13.166Z,26.67
2022-08-23T15:30:41.134Z,26.68
2022-08-23T15:33:10.142Z,26.68
2022-08-23T15:35:39.837Z,26.69
2022-08-23T15:38:08.178Z,26.69
2022-08-23T15:40:35.703Z,26.72
2022-08-23T15:43:04.473Z,26.74
2022-08-23T15:45:32.206Z,26.74
2022-08-23T15:48:01.048Z,26.71
2022-08-23T15:50:30.926Z,26.73
2022-08-23T15:52:58.652Z,26.77
2022-08-23T15:55:26.247Z,26.79
2022-08-23T15:57:53.727Z,26.70
2022-08-23T16:00:24.135Z,26.61
2022-08-23T16:03:18.748Z,26.66
2022-08-23T16:05:39.221Z,26.73
2022-08-23T16:08:06.988Z,26.74
2022-08-23T16:10:34.539Z,26.76
2022-08-23T16:13:03.387Z,26.72
2022-08-23T16:15:32.366Z,26.76
2022-08-23T16:17:59.898Z,26.70
2022-08-23T16:20:27.524Z,26.72
2022-08-23T16:22:54.972Z,26.71
2022-08-23T16:25:22.424Z,26.68
2022-08-23T16:27:49.915Z,26.74
2022-08-23T16:30:17.639Z,26.78
2022-08-23T16:32:46.352Z,26.83
2022-08-23T16:35:14.877Z,26.85
2022-08-23T16:37:42.339Z,26.85
2022-08-23T16:40:10.822Z,26.82
2022-08-23T16:42:38.350Z,26.81
2022-08-23T16:45:06.812Z,26.87
2022-08-23T16:47:36.223Z,26.90
2022-08-23T16:50:05.732Z,26.91
2022-08-23T16:52:34.747Z,26.94
2022-08-23T16:55:02.509Z,26.95
2022-08-23T16:57:29.956Z,26.95
2022-08-23T16:59:57.413Z,26.94
2022-08-23T17:02:28.268Z,26.98
2022-08-23T17:04:55.804Z,26.94
2022-08-23T17:07:24.614Z,26.97
2022-08-23T17:09:52.073Z,26.95
2022-08-23T17:12:19.646Z,26.94
2022-08-23T17:14:48.858Z,26.95
2022-08-23T17:17:16.339Z,26.92
2022-08-23T17:19:44.463Z,26.91
2022-08-23T17:22:12.118Z,26.87
2022-08-23T17:24:41.210Z,26.88
2022-08-23T17:27:08.634Z,26.87
2022-08-23T17:29:43.274Z,26.86
2022-08-23T17:32:10.873Z,26.87
2022-08-23T17:34:39.133Z,26.85
2022-08-23T17:37:15.617Z,26.85
2022-08-23T17:39:44.395Z,26.86
2022-08-23T17:42:11.853Z,26.82
2022-08-23T17:44:39.636Z,26.81
2022-08-23T17:47:07.824Z,26.81
2022-08-23T17:49:36.789Z,26.81
2022-08-23T17:52:06.259Z,26.80
2022-08-23T17:54:33.731Z,26.78
2022-08-23T17:57:04.905Z,26.75
2022-08-23T17:59:32.895Z,26.73
2022-08-23T18:02:00.313Z,26.74
2022-08-23T18:04:27.818Z,26.73
2022-08-23T18:06:55.313Z,26.74
2022-08-23T18:09:22.768Z,26.74
2022-08-23T18:11:50.243Z,26.72
2022-08-23T18:14:18.993Z,26.70
2022-08-23T18:16:46.865Z,26.71
2022-08-23T18:19:14.443Z,26.69
2022-08-23T18:21:42.056Z,26.66
2022-08-23T18:24:09.559Z,26.66
2022-08-23T18:26:54.825Z,26.65
2022-08-23T18:29:23.569Z,26.65
2022-08-23T18:31:51.131Z,26.64
2022-08-23T18:34:18.857Z,26.62
2022-08-23T18:36:46.884Z,26.63
2022-08-23T18:39:14.538Z,26.61
2022-08-23T18:41:42.122Z,26.60
2022-08-23T18:44:09.738Z,26.60
2022-08-23T18:46:39.786Z,26.61
2022-08-23T18:49:07.920Z,26.59
2022-08-23T18:51:35.741Z,26.58
2022-08-23T18:54:03.189Z,26.56
2022-08-23T18:56:30.665Z,26.58
2022-08-23T18:58:58.163Z,26.57
2022-08-23T19:01:28.515Z,26.55
2022-08-23T19:03:58.068Z,26.55
2022-08-23T19:06:25.510Z,26.56
2022-08-23T19:08:53.029Z,26.53
2022-08-23T19:11:20.884Z,26.54
2022-08-23T19:13:49.579Z,26.55
2022-08-23T19:16:17.104Z,26.54
2022-08-23T19:18:46.403Z,26.54
2022-08-23T19:21:18.263Z,26.54
2022-08-23T19:23:45.751Z,26.54
2022-08-23T19:26:13.482Z,26.53
2022-08-23T19:28:41.014Z,26.53
2022-08-23T19:31:09.082Z,26.52
2022-08-23T19:33:36.640Z,26.52
2022-08-23T19:36:04.601Z,26.51
2022-08-23T19:38:33.318Z,26.50
2022-08-23T19:41:01.126Z,26.51
2022-08-23T19:43:28.590Z,26.51
2022-08-23T19:45:59.311Z,26.50
2022-08-23T19:48:27.079Z,26.49
2022-08-23T19:50:54.524Z,26.47
2022-08-23T19:53:22.009Z,26.48
2022-08-23T19:55:51.192Z,26.47
2022-08-23T19:58:18.612Z,26.47
2022-08-23T20:00:46.131Z,26.48
2022-08-23T20:03:13.774Z,26.46
2022-08-23T20:05:42.025Z,26.46
2022-08-23T20:08:09.491Z,26.45
2022-08-23T20:10:36.924Z,26.44
2022-08-23T20:13:06.021Z,26.43
2022-08-23T20:15:33.441Z,26.43
2022-08-23T20:18:01.020Z,26.43
2022-08-23T20:20:28.445Z,26.41
2022-08-23T20:23:12.415Z,26.39
2022-08-23T20:25:39.848Z,26.38
2022-08-23T20:28:08.557Z,26.38
2022-08-23T20:30:37.344Z,26.38
2022-08-23T20:33:05.037Z,26.38
2022-08-23T20:35:32.524Z,26.37
2022-08-23T20:38:02.382Z,26.38
2022-08-23T20:40:29.992Z,26.36
2022-08-23T20:42:57.542Z,26.35
2022-08-23T20:45:26.276Z,26.34
2022-08-23T20:47:53.803Z,26.35
2022-08-23T20:50:21.240Z,26.36
2022-08-23T20:52:48.669Z,26.39
2022-08-23T20:55:16.141Z,26.41
2022-08-23T20:57:43.589Z,26.42
2022-08-23T21:00:12.630Z,26.43
2022-08-23T21:02:41.353Z,26.45
2022-08-23T21:05:09.549Z,26.45
2022-08-23T21:07:37.574Z,26.45
2022-08-23T21:10:06.035Z,26.45
2022-08-23T21:12:33.499Z,26.43
2022-08-23T21:15:00.914Z,26.45
2022-08-23T21:17:28.361Z,26.46
2022-08-23T21:19:57.092Z,26.45
2022-08-23T21:22:32.197Z,26.46
2022-08-23T21:24:59.812Z,26.44
2022-08-23T21:27:28.256Z,26.44
2022-08-23T21:29:55.734Z,26.46
2022-08-23T21:32:23.165Z,26.45
2022-08-23T21:34:50.601Z,26.44
2022-08-23T21:37:19.322Z,26.47
2022-08-23T21:39:47.849Z,26.46
2022-08-23T21:42:15.569Z,26.47
2022-08-23T21:44:43.077Z,26.46
2022-08-23T21:47:10.576Z,26.45
2022-08-23T21:49:38.167Z,26.39
2022-08-23T21:52:05.765Z,26.35
2022-08-23T21:54:34.466Z,26.33
2022-08-23T21:57:01.891Z,26.32
2022-08-23T21:59:29.709Z,26.31
2022-08-23T22:01:57.185Z,26.33
2022-08-23T22:04:24.658Z,26.33
2022-08-23T22:06:55.871Z,26.33
2022-08-23T22:09:31.338Z,26.32
2022-08-23T22:12:00.476Z,26.34
2022-08-23T22:14:31.206Z,26.36
2022-08-23T22:16:59.320Z,26.35
2022-08-23T22:19:26.784Z,26.32
2022-08-23T22:21:54.282Z,26.30
2022-08-23T22:24:25.542Z,26.28
2022-08-23T22:26:54.739Z,26.27
2022-08-23T22:29:23.804Z,26.26
2022-08-23T22:31:51.277Z,26.24
2022-08-23T22:34:18.714Z,26.23
2022-08-23T22:36:46.266Z,26.22
2022-08-23T22:39:19.617Z,26.19
2022-08-23T22:41:47.043Z,26.18
2022-08-23T22:44:14.551Z,26.19
2022-08-23T22:46:43.422Z,26.19
2022-08-23T22:49:10.898Z,26.18
2022-08-23T22:51:38.765Z,26.18
2022-08-23T22:54:08.367Z,26.17
2022-08-23T22:56:38.538Z,26.16
2022-08-23T22:59:06.118Z,26.17
2022-08-23T23:01:34.828Z,26.16
2022-08-23T23:04:04.469Z,26.17
2022-08-23T23:06:31.910Z,26.15
2022-08-23T23:08:59.417Z,26.15
2022-08-23T23:11:26.843Z,26.14
2022-08-23T23:13:54.263Z,26.14
2022-08-23T23:16:23.227Z,26.13
2022-08-23T23:19:04.805Z,26.14
2022-08-23T23:21:34.623Z,26.13
2022-08-23T23:24:02.177Z,26.13
2022-08-23T23:26:29.597Z,26.12
2022-08-23T23:28:57.023Z,26.14
2022-08-23T23:31:24.744Z,26.14
2022-08-23T23:33:52.189Z,26.12
2022-08-23T23:36:20.845Z,26.12
2022-08-23T23:38:49.598Z,26.10
2022-08-23T23:41:17.015Z,26.10
2022-08-23T23:43:44.471Z,26.10
2022-08-23T23:46:13.305Z,26.09
2022-08-23T23:48:40.926Z,26.09
2022-08-23T23:51:09.364Z,26.09
2022-08-23T23:53:36.861Z,26.10
2022-08-23T23:56:06.556Z,26.11
2022-08-23T23:58:34.471Z,26.10
